createdAt,value
2022-08-30T00:00:45.899Z,93946.78
2022-08-30T00:01:42.513Z,93947.56
2022-08-30T00:02:39.264Z,93942.16
2022-08-30T00:03:47.244Z,93948.72
2022-08-30T00:04:43.996Z,93947.19
2022-08-30T00:05:42.030Z,93930.97
2022-08-30T00:06:38.652Z,93943.69
2022-08-30T00:07:35.258Z,93950.66
2022-08-30T00:08:33.653Z,93956.44
2022-08-30T00:09:32.070Z,93954.88
2022-08-30T00:10:29.527Z,93953.31
2022-08-30T00:11:28.937Z,93947.50
2022-08-30T00:12:25.760Z,93955.59
2022-08-30T00:13:23.531Z,93942.09
2022-08-30T00:14:20.536Z,93955.19
2022-08-30T00:15:18.271Z,93946.72
2022-08-30T00:16:15.591Z,93950.97
2022-08-30T00:17:12.753Z,93948.28
2022-08-30T00:18:10.384Z,93946.00
2022-08-30T00:19:07.077Z,93949.50
2022-08-30T00:20:10.631Z,93951.78
2022-08-30T00:21:08.695Z,93951.78
2022-08-30T00:22:07.145Z,93946.78
2022-08-30T00:23:05.664Z,93951.41
2022-08-30T00:24:02.526Z,93942.53
2022-08-30T00:25:00.920Z,93941.75
2022-08-30T00:25:58.290Z,93944.81
2022-08-30T00:26:54.902Z,93942.81
2022-08-30T00:27:51.623Z,93907.31
2022-08-30T00:28:48.348Z,93922.75
2022-08-30T00:29:45.477Z,93934.38
2022-08-30T00:30:43.567Z,93932.81
2022-08-30T00:31:40.336Z,93924.69
2022-08-30T00:32:37.031Z,93931.72
2022-08-30T00:33:33.708Z,93930.91
2022-08-30T00:34:31.845Z,93932.88
2022-08-30T00:35:28.738Z,93929.41
2022-08-30T00:36:25.423Z,93929.78
2022-08-30T00:37:22.431Z,93919.38
2022-08-30T00:38:19.075Z,93924.00
2022-08-30T00:39:15.672Z,93930.97
2022-08-30T00:40:15.947Z,93929.81
2022-08-30T00:41:12.873Z,93930.97
2022-08-30T00:42:10.374Z,93932.50
2022-08-30T00:43:14.141Z,93932.09
2022-08-30T00:44:11.295Z,93921.69
2022-08-30T00:45:22.908Z,93928.63
2022-08-30T00:46:19.612Z,93925.91
2022-08-30T00:47:16.386Z,93919.38
2022-08-30T00:48:13.164Z,93915.50
2022-08-30T00:49:12.869Z,93912.03
2022-08-30T00:50:11.340Z,93927.81
2022-08-30T00:51:11.487Z,93929.34
2022-08-30T00:52:08.976Z,93927.81
2022-08-30T00:53:10.810Z,93931.28
2022-08-30T00:54:08.345Z,93932.84
2022-08-30T00:55:05.898Z,93925.53
2022-08-30T00:56:04.504Z,93913.94
2022-08-30T00:57:01.173Z,93934.03
2022-08-30T00:58:02.367Z,93936.34
2022-08-30T00:59:03.315Z,93929.78
2022-08-30T01:00:00.248Z,93940.22
2022-08-30T01:00:59.459Z,93948.69
2022-08-30T01:01:56.436Z,93945.22
2022-08-30T01:02:53.225Z,93932.88
2022-08-30T01:03:50.546Z,93923.25
2022-08-30T01:04:48.164Z,93954.88
2022-08-30T01:05:45.786Z,93952.19
2022-08-30T01:06:42.696Z,93958.72
2022-08-30T01:07:40.699Z,93958.72
2022-08-30T01:08:37.792Z,93956.03
2022-08-30T01:09:36.107Z,93951.38
2022-08-30T01:10:34.588Z,93961.41
2022-08-30T01:11:34.686Z,93965.25
2022-08-30T01:12:32.054Z,93950.22
2022-08-30T01:13:28.750Z,93954.47
2022-08-30T01:14:26.177Z,93966.81
2022-08-30T01:15:23.422Z,93951.72
2022-08-30T01:16:21.511Z,93954.75
2022-08-30T01:17:21.290Z,93949.38
2022-08-30T01:18:22.275Z,93950.50
2022-08-30T01:19:41.105Z,93950.50
2022-08-30T01:20:49.563Z,93950.16
2022-08-30T01:21:50.843Z,93947.06
2022-08-30T01:22:50.498Z,93944.78
2022-08-30T01:23:50.344Z,93947.09
2022-08-30T01:24:50.518Z,93929.41
2022-08-30T01:25:49.964Z,93938.69
2022-08-30T01:26:46.626Z,93943.69
2022-08-30T01:27:49.703Z,93944.88
2022-08-30T01:28:48.812Z,93946.00
2022-08-30T01:29:45.898Z,93941.78
2022-08-30T01:30:45.945Z,93939.47
2022-08-30T01:31:42.676Z,93933.28
2022-08-30T01:32:47.999Z,93934.47
2022-08-30T01:33:44.625Z,93930.59
2022-08-30T01:34:41.360Z,93941.00
2022-08-30T01:35:53.772Z,93936.38
2022-08-30T01:36:50.628Z,93928.66
2022-08-30T01:37:47.748Z,93924.41
2022-08-30T01:38:56.961Z,93932.13
2022-08-30T01:39:54.306Z,93931.00
2022-08-30T01:40:56.489Z,93930.59
2022-08-30T01:41:53.185Z,93929.44
2022-08-30T01:42:50.241Z,93931.75
2022-08-30T01:43:47.818Z,93927.13
2022-08-30T01:44:45.602Z,93929.44
2022-08-30T01:45:42.509Z,93933.28
2022-08-30T01:46:45.957Z,93923.25
2022-08-30T01:47:42.679Z,93925.59
2022-08-30T01:48:41.199Z,93930.59
2022-08-30T01:49:39.088Z,93929.81
2022-08-30T01:50:35.716Z,93928.66
2022-08-30T01:51:35.242Z,93924.44
2022-08-30T01:52:32.020Z,93926.75
2022-08-30T01:53:29.065Z,93925.53
2022-08-30T01:54:27.477Z,93927.47
2022-08-30T01:55:30.350Z,93916.66
2022-08-30T01:56:29.387Z,93924.75
2022-08-30T01:57:26.988Z,93918.59
2022-08-30T01:58:23.890Z,93903.94
2022-08-30T01:59:20.505Z,93915.91
2022-08-30T02:00:17.538Z,93914.38
2022-08-30T02:01:18.056Z,93910.91
2022-08-30T02:02:16.898Z,93903.19
2022-08-30T02:03:13.796Z,93922.88
2022-08-30T02:04:11.943Z,93923.66
2022-08-30T02:05:08.874Z,93912.84
2022-08-30T02:06:12.159Z,93921.34
2022-08-30T02:07:09.017Z,93914.75
2022-08-30T02:08:05.669Z,93918.25
2022-08-30T02:09:02.814Z,93922.47
2022-08-30T02:09:59.473Z,93917.84
2022-08-30T02:10:56.194Z,93913.22
2022-08-30T02:11:52.956Z,93922.47
2022-08-30T02:12:49.871Z,93907.44
2022-08-30T02:13:47.163Z,93918.59
2022-08-30T02:14:44.517Z,93922.09
2022-08-30T02:15:41.785Z,93911.69
2022-08-30T02:16:39.858Z,93918.59
2022-08-30T02:17:36.943Z,93914.34
2022-08-30T02:18:34.783Z,93920.88
2022-08-30T02:19:31.515Z,93920.06
2022-08-30T02:20:28.358Z,93916.97
2022-08-30T02:21:27.770Z,93913.09
2022-08-30T02:22:24.394Z,93920.41
2022-08-30T02:23:21.093Z,93912.72
2022-08-30T02:24:17.775Z,93914.66
2022-08-30T02:25:20.603Z,93912.72
2022-08-30T02:26:18.587Z,93914.31
2022-08-30T02:27:15.224Z,93909.63
2022-08-30T02:28:14.968Z,93914.66
2022-08-30T02:29:11.989Z,93915.38
2022-08-30T02:30:10.257Z,93916.91
2022-08-30T02:31:07.229Z,93901.09
2022-08-30T02:32:04.132Z,93917.75
2022-08-30T02:33:00.900Z,93926.22
2022-08-30T02:33:57.649Z,93930.78
2022-08-30T02:34:55.431Z,93906.81
2022-08-30T02:35:52.615Z,93921.47
2022-08-30T02:36:49.409Z,93931.47
2022-08-30T02:37:46.067Z,93928.41
2022-08-30T02:38:42.701Z,93910.69
2022-08-30T02:39:39.387Z,93912.25
2022-08-30T02:40:36.460Z,93918.00
2022-08-30T02:41:36.074Z,93916.78
2022-08-30T02:42:32.737Z,93914.50
2022-08-30T02:43:29.432Z,93916.41
2022-08-30T02:44:26.203Z,93919.47
2022-08-30T02:45:23.901Z,93922.91
2022-08-30T02:46:20.682Z,93922.13
2022-08-30T02:47:17.474Z,93923.66
2022-08-30T02:48:14.783Z,93906.69
2022-08-30T02:49:32.701Z,93882.00
2022-08-30T02:50:28.237Z,93927.91
2022-08-30T02:51:24.946Z,93924.81
2022-08-30T02:52:26.561Z,93929.13
2022-08-30T02:53:24.578Z,93925.31
2022-08-30T02:54:23.854Z,93917.59
2022-08-30T02:55:20.535Z,93923.41
2022-08-30T02:56:17.145Z,93925.66
2022-08-30T02:57:19.983Z,93920.22
2022-08-30T02:58:17.153Z,93921.72
2022-08-30T02:59:14.982Z,93916.28
2022-08-30T03:00:14.844Z,93916.69
2022-08-30T03:01:14.377Z,93923.63
2022-08-30T03:02:12.110Z,93921.72
2022-08-30T03:03:08.891Z,93921.34
2022-08-30T03:04:06.339Z,93910.59
2022-08-30T03:05:04.272Z,93917.56
2022-08-30T03:06:03.268Z,93909.47
2022-08-30T03:06:59.946Z,93906.09
2022-08-30T03:07:56.603Z,93916.06
2022-08-30T03:08:53.687Z,93916.06
2022-08-30T03:09:50.596Z,93917.28
2022-08-30T03:10:47.239Z,93915.31
2022-08-30T03:11:44.946Z,93915.31
2022-08-30T03:12:42.712Z,93911.88
2022-08-30T03:13:39.686Z,93911.50
2022-08-30T03:14:38.643Z,93915.72
2022-08-30T03:15:37.330Z,93912.59
2022-08-30T03:16:34.054Z,93914.06
2022-08-30T03:17:31.276Z,93910.22
2022-08-30T03:18:28.679Z,93900.53
2022-08-30T03:19:25.786Z,93904.41
2022-08-30T03:20:23.809Z,93882.41
2022-08-30T03:21:20.471Z,93904.06
2022-08-30T03:22:17.782Z,93905.97
2022-08-30T03:23:21.377Z,93912.91
2022-08-30T03:24:18.785Z,93914.06
2022-08-30T03:25:16.030Z,93878.50
2022-08-30T03:26:15.073Z,93903.94
2022-08-30T03:27:12.377Z,93907.09
2022-08-30T03:28:09.132Z,93903.63
2022-08-30T03:29:05.924Z,93904.41
2022-08-30T03:30:03.977Z,93906.41
2022-08-30T03:31:00.718Z,93904.53
2022-08-30T03:31:58.182Z,93897.59
2022-08-30T03:32:54.911Z,93903.41
2022-08-30T03:33:51.546Z,93901.09
2022-08-30T03:34:48.229Z,93909.63
2022-08-30T03:35:44.881Z,93903.06
2022-08-30T03:36:41.611Z,93904.97
2022-08-30T03:37:38.224Z,93912.28
2022-08-30T03:38:35.008Z,93919.63
2022-08-30T03:39:32.015Z,93912.25
2022-08-30T03:40:29.172Z,93918.03
2022-08-30T03:41:26.668Z,93917.63
2022-08-30T03:42:24.284Z,93916.09
2022-08-30T03:43:21.543Z,93910.28
2022-08-30T03:44:21.592Z,93911.44
2022-08-30T03:45:19.249Z,93913.72
2022-08-30T03:46:16.418Z,93916.06
2022-08-30T03:47:13.260Z,93921.88
2022-08-30T03:48:09.992Z,93916.53
2022-08-30T03:49:07.097Z,93914.59
2022-08-30T03:50:06.051Z,93921.88
2022-08-30T03:51:03.120Z,93919.97
2022-08-30T03:52:05.821Z,93918.41
2022-08-30T03:53:02.898Z,93916.50
2022-08-30T03:54:00.273Z,93919.16
2022-08-30T03:54:56.995Z,93914.53
2022-08-30T03:55:53.976Z,93906.88
2022-08-30T03:56:51.930Z,93913.41
2022-08-30T03:57:48.618Z,93917.63
2022-08-30T03:58:48.944Z,93902.50
2022-08-30T03:59:45.556Z,93907.88
2022-08-30T04:00:42.448Z,93920.25
2022-08-30T04:01:39.751Z,93913.69
2022-08-30T04:02:36.556Z,93912.09
2022-08-30T04:03:34.087Z,93898.56
2022-08-30T04:04:31.113Z,93913.22
2022-08-30T04:05:27.990Z,93914.72
2022-08-30T04:06:24.939Z,93898.16
2022-08-30T04:07:21.603Z,93917.81
2022-08-30T04:08:18.283Z,93895.09
2022-08-30T04:09:14.950Z,93919.44
2022-08-30T04:10:12.249Z,93905.50
2022-08-30T04:11:08.919Z,93916.31
2022-08-30T04:12:07.049Z,93917.47
2022-08-30T04:13:03.894Z,93907.50
2022-08-30T04:14:00.630Z,93921.81
2022-08-30T04:14:57.247Z,93912.69
2022-08-30T04:15:54.040Z,93920.44
2022-08-30T04:16:50.691Z,93918.56
2022-08-30T04:17:48.233Z,93918.19
2022-08-30T04:18:44.941Z,93908.88
2022-08-30T04:19:41.533Z,93917.75
2022-08-30T04:20:38.554Z,93916.09
2022-08-30T04:21:42.916Z,93924.59
2022-08-30T04:22:40.129Z,93921.47
2022-08-30T04:23:36.763Z,93922.63
2022-08-30T04:24:34.580Z,93897.59
2022-08-30T04:25:31.286Z,93932.00
2022-08-30T04:26:29.338Z,93926.19
2022-08-30T04:27:26.324Z,93934.75
2022-08-30T04:28:23.507Z,93931.69
2022-08-30T04:29:20.126Z,93937.81
2022-08-30T04:30:17.900Z,93921.59
2022-08-30T04:31:17.267Z,93942.44
2022-08-30T04:32:14.337Z,93940.16
2022-08-30T04:33:12.736Z,93946.31
2022-08-30T04:34:11.666Z,93944.00
2022-08-30T04:35:08.892Z,93948.16
2022-08-30T04:36:07.519Z,93945.09
2022-08-30T04:37:04.264Z,93948.22
2022-08-30T04:38:01.030Z,93947.06
2022-08-30T04:38:57.634Z,93955.56
2022-08-30T04:40:00.689Z,93947.09
2022-08-30T04:40:57.527Z,93957.88
2022-08-30T04:41:54.367Z,93947.91
2022-08-30T04:42:54.197Z,93944.81
2022-08-30T04:43:51.003Z,93935.16
2022-08-30T04:44:47.597Z,93949.84
2022-08-30T04:45:44.281Z,93928.59
2022-08-30T04:46:44.809Z,93951.75
2022-08-30T04:47:44.670Z,93948.66
2022-08-30T04:48:41.321Z,93951.75
2022-08-30T04:49:38.207Z,93957.53
2022-08-30T04:50:35.176Z,93952.13
2022-08-30T04:51:32.320Z,93952.50
2022-08-30T04:52:29.442Z,93956.38
2022-08-30T04:53:26.369Z,93933.63
2022-08-30T04:54:23.067Z,93934.03
2022-08-30T04:55:20.471Z,93952.53
2022-08-30T04:56:22.268Z,93955.59
2022-08-30T04:57:18.935Z,93956.72
2022-08-30T04:58:15.551Z,93956.25
2022-08-30T04:59:13.257Z,93959.78
2022-08-30T05:00:12.968Z,93965.97
2022-08-30T05:01:19.915Z,93961.72
2022-08-30T05:02:17.761Z,93966.34
2022-08-30T05:03:16.277Z,93964.84
2022-08-30T05:04:14.858Z,93965.63
2022-08-30T05:05:30.148Z,93962.59
2022-08-30T05:06:31.121Z,93964.91
2022-08-30T05:07:27.788Z,93969.50
2022-08-30T05:08:24.948Z,93972.59
2022-08-30T05:09:21.787Z,93972.63
2022-08-30T05:10:18.436Z,93978.41
2022-08-30T05:11:16.793Z,93966.84
2022-08-30T05:12:13.520Z,93964.16
2022-08-30T05:13:10.875Z,93968.75
2022-08-30T05:14:07.497Z,93969.56
2022-08-30T05:15:04.783Z,93968.78
2022-08-30T05:16:02.693Z,93976.88
2022-08-30T05:16:59.376Z,93970.34
2022-08-30T05:17:56.001Z,93974.53
2022-08-30T05:18:53.777Z,93975.69
2022-08-30T05:19:50.489Z,93977.66
2022-08-30T05:20:47.124Z,93978.81
2022-08-30T05:21:43.775Z,93981.13
2022-08-30T05:22:50.022Z,93982.69
2022-08-30T05:23:50.740Z,93974.16
2022-08-30T05:24:47.415Z,93980.34
2022-08-30T05:25:44.106Z,93979.16
2022-08-30T05:26:40.791Z,93977.25
2022-08-30T05:27:37.724Z,93985.38
2022-08-30T05:28:35.730Z,93961.03
2022-08-30T05:29:32.618Z,93974.16
2022-08-30T05:30:33.083Z,93983.44
2022-08-30T05:31:35.201Z,93976.84
2022-08-30T05:32:31.944Z,93984.97
2022-08-30T05:33:29.091Z,93979.53
2022-08-30T05:34:26.887Z,93986.88
2022-08-30T05:35:25.705Z,93980.31
2022-08-30T05:36:25.709Z,93982.97
2022-08-30T05:37:22.444Z,93974.50
2022-08-30T05:38:19.237Z,93977.97
2022-08-30T05:39:15.917Z,93986.84
2022-08-30T05:40:17.758Z,93983.03
2022-08-30T05:41:14.879Z,93977.97
2022-08-30T05:42:12.220Z,93982.25
2022-08-30T05:43:14.317Z,93926.34
2022-08-30T05:44:11.625Z,93977.56
2022-08-30T05:45:09.422Z,93967.16
2022-08-30T05:46:11.753Z,93979.91
2022-08-30T05:47:08.501Z,93982.25
2022-08-30T05:48:05.249Z,93973.31
2022-08-30T05:49:04.868Z,93982.94
2022-08-30T05:50:01.503Z,93983.75
2022-08-30T05:51:07.860Z,93971.41
2022-08-30T05:52:05.360Z,93987.56
2022-08-30T05:53:02.143Z,93988.31
2022-08-30T05:53:59.611Z,93982.94
2022-08-30T05:55:02.740Z,93984.50
2022-08-30T05:56:01.765Z,93980.94
2022-08-30T05:56:58.376Z,93987.91
2022-08-30T05:57:55.015Z,93984.81
2022-08-30T05:58:51.978Z,93977.09
2022-08-30T05:59:48.829Z,93986.78
2022-08-30T06:00:45.630Z,93992.16
2022-08-30T06:01:45.419Z,93985.13
2022-08-30T06:02:42.811Z,93966.22
2022-08-30T06:03:39.571Z,93980.09
2022-08-30T06:04:36.977Z,93986.22
2022-08-30T06:05:33.713Z,93966.56
2022-08-30T06:06:35.171Z,93981.19
2022-08-30T06:07:31.812Z,93987.81
2022-08-30T06:08:28.506Z,93974.63
2022-08-30T06:09:25.115Z,93985.50
2022-08-30T06:10:21.809Z,93981.25
2022-08-30T06:11:21.198Z,93981.59
2022-08-30T06:12:17.788Z,93983.91
2022-08-30T06:13:14.892Z,93984.63
2022-08-30T06:14:12.130Z,93982.31
2022-08-30T06:15:09.284Z,93988.91
2022-08-30T06:16:06.107Z,93971.22
2022-08-30T06:17:02.783Z,93982.75
2022-08-30T06:17:59.898Z,93986.16
2022-08-30T06:19:00.184Z,93985.75
2022-08-30T06:19:56.871Z,93986.47
2022-08-30T06:20:53.585Z,93982.56
2022-08-30T06:21:51.563Z,93990.34
2022-08-30T06:22:48.176Z,93985.25
2022-08-30T06:23:45.250Z,93986.88
2022-08-30T06:24:56.914Z,93992.25
2022-08-30T06:25:53.953Z,93998.50
2022-08-30T06:26:50.617Z,93997.34
2022-08-30T06:27:47.588Z,93958.03
2022-08-30T06:28:44.647Z,93993.03
2022-08-30T06:29:41.810Z,94004.03
2022-08-30T06:30:41.008Z,93997.81
2022-08-30T06:31:37.845Z,93994.09
2022-08-30T06:32:35.217Z,94001.75
2022-08-30T06:33:31.973Z,94005.59
2022-08-30T06:34:29.618Z,93983.47
2022-08-30T06:35:27.928Z,94008.06
2022-08-30T06:36:25.719Z,94005.72
2022-08-30T06:37:29.612Z,94005.13
2022-08-30T06:38:27.574Z,93989.84
2022-08-30T06:39:24.454Z,94005.88
2022-08-30T06:40:21.832Z,94006.72
2022-08-30T06:41:21.981Z,94015.13
2022-08-30T06:42:18.654Z,94000.41
2022-08-30T06:43:15.354Z,94004.66
2022-08-30T06:44:12.289Z,94007.91
2022-08-30T06:45:11.081Z,94005.94
2022-08-30T06:46:11.271Z,94015.25
2022-08-30T06:47:08.039Z,94014.75
2022-08-30T06:48:04.638Z,94013.84
2022-08-30T06:49:01.805Z,94014.13
2022-08-30T06:49:58.783Z,94019.25
2022-08-30T06:50:55.928Z,94017.38
2022-08-30T06:51:53.974Z,94015.56
2022-08-30T06:52:50.818Z,94014.41
2022-08-30T06:53:48.987Z,94002.81
2022-08-30T06:54:45.876Z,94015.81
2022-08-30T06:55:42.569Z,94015.72
2022-08-30T06:56:55.281Z,94017.59
2022-08-30T06:57:56.689Z,94021.97
2022-08-30T06:58:53.531Z,94022.63
2022-08-30T06:59:53.076Z,94024.69
2022-08-30T07:00:52.090Z,94019.44
2022-08-30T07:01:49.180Z,94023.22
2022-08-30T07:02:45.935Z,94017.41
2022-08-30T07:03:42.752Z,94027.31
2022-08-30T07:04:39.396Z,94029.31
2022-08-30T07:05:36.064Z,94028.72
2022-08-30T07:06:33.359Z,94023.69
2022-08-30T07:07:30.052Z,94000.59
2022-08-30T07:08:27.420Z,94019.16
2022-08-30T07:09:24.566Z,93992.91
2022-08-30T07:10:21.717Z,94029.50
2022-08-30T07:11:36.332Z,94033.88
2022-08-30T07:12:32.994Z,94026.53
2022-08-30T07:13:30.180Z,94026.00
2022-08-30T07:14:26.796Z,94028.69
2022-08-30T07:15:23.601Z,94039.28
2022-08-30T07:16:20.568Z,94034.22
2022-08-30T07:17:35.656Z,94032.28
2022-08-30T07:18:50.820Z,94029.34
2022-08-30T07:19:49.365Z,94035.09
2022-08-30T07:20:46.073Z,94036.19
2022-08-30T07:21:43.978Z,94018.41
2022-08-30T07:22:40.606Z,94028.88
2022-08-30T07:23:38.033Z,94034.28
2022-08-30T07:24:34.653Z,94031.38
2022-08-30T07:25:31.363Z,94037.94
2022-08-30T07:26:31.902Z,94028.63
2022-08-30T07:27:28.802Z,94030.53
2022-08-30T07:28:25.461Z,94026.28
2022-08-30T07:29:22.222Z,94038.22
2022-08-30T07:30:19.281Z,94037.88
2022-08-30T07:31:18.267Z,94036.31
2022-08-30T07:32:16.603Z,94038.63
2022-08-30T07:33:13.454Z,94036.28
2022-08-30T07:34:10.554Z,94034.00
2022-08-30T07:35:07.563Z,94030.97
2022-08-30T07:36:05.349Z,94019.81
2022-08-30T07:37:02.072Z,94030.25
2022-08-30T07:37:59.326Z,94032.19
2022-08-30T07:38:56.172Z,94028.00
2022-08-30T07:39:53.008Z,94036.84
2022-08-30T07:40:49.689Z,94031.03
2022-08-30T07:41:46.334Z,94008.72
2022-08-30T07:42:43.614Z,94033.38
2022-08-30T07:43:40.266Z,94009.56
2022-08-30T07:44:38.117Z,94033.09
2022-08-30T07:45:35.447Z,94030.00
2022-08-30T07:46:32.343Z,94034.63
2022-08-30T07:47:29.031Z,94030.00
2022-08-30T07:48:25.673Z,94034.56
2022-08-30T07:49:22.536Z,94036.06
2022-08-30T07:50:19.189Z,94033.53
2022-08-30T07:51:21.217Z,94014.69
2022-08-30T07:52:17.892Z,94005.41
2022-08-30T07:53:14.663Z,94020.88
2022-08-30T07:54:11.811Z,94022.03
2022-08-30T07:55:09.054Z,94013.16
2022-08-30T07:56:05.865Z,94016.56
2022-08-30T07:57:02.506Z,94018.47
2022-08-30T07:57:59.274Z,94018.06
2022-08-30T07:58:56.012Z,94021.50
2022-08-30T07:59:52.929Z,94027.31
2022-08-30T08:00:49.665Z,94033.50
2022-08-30T08:01:46.410Z,94030.38
2022-08-30T08:02:43.190Z,94025.34
2022-08-30T08:03:41.886Z,94028.81
2022-08-30T08:04:38.542Z,94023.00
2022-08-30T08:05:43.870Z,94019.50
2022-08-30T08:06:40.889Z,94022.69
2022-08-30T08:07:37.536Z,94008.34
2022-08-30T08:08:34.404Z,94019.13
2022-08-30T08:09:31.110Z,94025.75
2022-08-30T08:10:27.772Z,94021.44
2022-08-30T08:11:30.386Z,94027.19
2022-08-30T08:12:29.701Z,94027.25
2022-08-30T08:13:28.580Z,94035.28
2022-08-30T08:14:29.914Z,94024.03
2022-08-30T08:15:26.819Z,94026.00
2022-08-30T08:16:27.563Z,94027.34
2022-08-30T08:17:24.209Z,94031.59
2022-08-30T08:18:20.875Z,94029.56
2022-08-30T08:19:17.671Z,94026.09
2022-08-30T08:20:14.349Z,94029.66
2022-08-30T08:21:11.599Z,94034.28
2022-08-30T08:22:20.558Z,94031.22
2022-08-30T08:23:18.084Z,94011.09
2022-08-30T08:24:15.195Z,94029.28
2022-08-30T08:25:12.000Z,94029.66
2022-08-30T08:26:08.805Z,94036.44
2022-08-30T08:27:05.748Z,94030.59
2022-08-30T08:28:02.710Z,94035.91
2022-08-30T08:28:59.369Z,94036.97
2022-08-30T08:29:56.008Z,94034.66
2022-08-30T08:30:53.041Z,94035.91
2022-08-30T08:31:50.186Z,94045.22
2022-08-30T08:32:48.575Z,94035.53
2022-08-30T08:33:45.442Z,94039.66
2022-08-30T08:34:42.122Z,94044.78
2022-08-30T08:35:39.042Z,94039.81
2022-08-30T08:36:36.163Z,94039.13
2022-08-30T08:37:32.842Z,94036.50
2022-08-30T08:38:29.460Z,94037.59
2022-08-30T08:39:26.140Z,94032.47
2022-08-30T08:40:23.318Z,94032.81
2022-08-30T08:41:52.333Z,94040.22
2022-08-30T08:42:52.761Z,94036.56
2022-08-30T08:43:49.386Z,94038.78
2022-08-30T08:44:58.656Z,94039.16
2022-08-30T08:46:04.423Z,94035.59
2022-08-30T08:47:18.046Z,94039.03
2022-08-30T08:48:32.123Z,94041.84
2022-08-30T08:49:46.286Z,94040.53
2022-08-30T08:51:03.030Z,94038.69
2022-08-30T08:52:18.222Z,94042.88
2022-08-30T08:53:50.436Z,94039.28
2022-08-30T08:54:59.060Z,94049.59
2022-08-30T08:55:56.066Z,94046.69
2022-08-30T08:56:53.426Z,94048.84
2022-08-30T08:57:52.440Z,94052.50
2022-08-30T08:58:54.794Z,94036.53
2022-08-30T08:59:55.121Z,94019.94
2022-08-30T09:00:52.691Z,94045.00
2022-08-30T09:01:51.022Z,94053.09
2022-08-30T09:03:03.042Z,94024.09
2022-08-30T09:04:05.575Z,94051.78
2022-08-30T09:05:02.744Z,94053.41
2022-08-30T09:06:04.181Z,94049.75
2022-08-30T09:07:05.577Z,94056.16
2022-08-30T09:08:09.940Z,94057.97
2022-08-30T09:09:06.958Z,94052.06
2022-08-30T09:10:04.471Z,94055.44
2022-08-30T09:11:05.418Z,94050.75
2022-08-30T09:12:03.221Z,94043.41
2022-08-30T09:13:02.259Z,94056.56
2022-08-30T09:14:00.149Z,94050.69
2022-08-30T09:15:16.787Z,94049.25
2022-08-30T09:16:51.987Z,94050.22
2022-08-30T09:18:19.340Z,94049.63
2022-08-30T09:19:40.420Z,94053.28
2022-08-30T09:20:45.807Z,94054.09
2022-08-30T09:21:42.438Z,94055.94
2022-08-30T09:22:46.747Z,94053.75
2022-08-30T09:23:54.788Z,94057.88
2022-08-30T09:25:06.023Z,94065.00
2022-08-30T09:26:06.233Z,94069.59
2022-08-30T09:27:17.487Z,94068.44
2022-08-30T09:28:24.256Z,94057.41
2022-08-30T09:29:22.824Z,94063.81
2022-08-30T09:30:22.245Z,94059.81
2022-08-30T09:31:52.946Z,94059.78
2022-08-30T09:33:01.939Z,94059.00
2022-08-30T09:34:05.472Z,94041.63
2022-08-30T09:35:05.064Z,94058.59
2022-08-30T09:36:13.929Z,94061.34
2022-08-30T09:37:44.535Z,94056.88
2022-08-30T09:38:41.298Z,94047.84
2022-08-30T09:39:42.730Z,94047.38
2022-08-30T09:40:51.970Z,94050.28
2022-08-30T09:41:50.505Z,94059.56
2022-08-30T09:43:07.797Z,94054.16
2022-08-30T09:44:10.728Z,94052.44
2022-08-30T09:45:19.336Z,94057.19
2022-08-30T09:46:24.628Z,94048.72
2022-08-30T09:47:31.797Z,94044.75
2022-08-30T09:48:40.720Z,94050.09
2022-08-30T09:49:40.128Z,94044.16
2022-08-30T09:50:37.230Z,94043.44
2022-08-30T09:51:55.352Z,94049.56
2022-08-30T09:53:01.173Z,94046.06
2022-08-30T09:54:18.542Z,94043.41
2022-08-30T09:55:42.856Z,94041.78
2022-08-30T09:56:57.186Z,94044.03
2022-08-30T09:58:08.566Z,94041.47
2022-08-30T09:59:20.016Z,94044.06
2022-08-30T10:00:22.711Z,94042.47
2022-08-30T10:01:28.086Z,94044.78
2022-08-30T10:02:59.848Z,94039.13
2022-08-30T10:04:09.585Z,94014.28
2022-08-30T10:05:13.205Z,94038.03
2022-08-30T10:06:31.307Z,94039.78
2022-08-30T10:07:45.017Z,94035.81
2022-08-30T10:09:00.824Z,94036.41
2022-08-30T10:10:06.022Z,94036.41
2022-08-30T10:11:16.381Z,94035.13
2022-08-30T10:12:21.116Z,94026.56
2022-08-30T10:13:33.656Z,94027.94
2022-08-30T10:14:56.441Z,94018.03
2022-08-30T10:16:06.733Z,94018.50
2022-08-30T10:17:09.966Z,94027.13
2022-08-30T10:18:46.050Z,94017.13
2022-08-30T10:20:07.540Z,94017.06
2022-08-30T10:21:07.080Z,94024.09
2022-08-30T10:22:25.095Z,94015.44
2022-08-30T10:23:29.699Z,94014.59
2022-08-30T10:24:38.085Z,94012.88
2022-08-30T10:25:44.132Z,94012.16
2022-08-30T10:26:54.503Z,94005.19
2022-08-30T10:28:05.043Z,94018.28
2022-08-30T10:29:09.222Z,94005.84
2022-08-30T10:30:10.667Z,94010.47
2022-08-30T10:31:15.296Z,94008.13
2022-08-30T10:32:24.727Z,94009.59
2022-08-30T10:33:26.597Z,94007.31
2022-08-30T10:34:45.415Z,94009.66
2022-08-30T10:35:50.290Z,94011.66
2022-08-30T10:36:58.265Z,94001.13
2022-08-30T10:38:06.474Z,94013.03
2022-08-30T10:39:04.376Z,94013.63
2022-08-30T10:40:34.116Z,94005.28
2022-08-30T10:41:46.251Z,94008.78
2022-08-30T10:42:42.892Z,94008.94
2022-08-30T10:43:51.008Z,94008.78
2022-08-30T10:45:10.573Z,94008.03
2022-08-30T10:46:20.140Z,94000.63
2022-08-30T10:47:23.262Z,93999.91
2022-08-30T10:48:31.481Z,93998.91
2022-08-30T10:49:35.064Z,93996.09
2022-08-30T10:50:41.363Z,94000.06
2022-08-30T10:52:02.502Z,93991.16
2022-08-30T10:53:23.709Z,93996.25
2022-08-30T10:54:32.578Z,93990.81
2022-08-30T10:55:35.675Z,93989.63
2022-08-30T10:56:35.648Z,93987.91
2022-08-30T10:57:32.377Z,93983.69
2022-08-30T10:58:31.463Z,93984.16
2022-08-30T10:59:28.953Z,93980.13
2022-08-30T11:01:08.477Z,93983.56
2022-08-30T11:02:21.424Z,93983.56
2022-08-30T11:03:23.766Z,93989.84
2022-08-30T11:04:45.622Z,93983.91
2022-08-30T11:05:53.937Z,93985.31
2022-08-30T11:07:10.184Z,93989.94
2022-08-30T11:08:36.674Z,93992.84
2022-08-30T11:10:01.085Z,93982.97
2022-08-30T11:11:07.010Z,93989.91
2022-08-30T11:12:28.035Z,93991.38
2022-08-30T11:13:29.860Z,93988.41
2022-08-30T11:14:26.947Z,93984.13
2022-08-30T11:15:27.733Z,93984.13
2022-08-30T11:16:45.327Z,94000.38
2022-08-30T11:18:09.907Z,94002.09
2022-08-30T11:19:45.580Z,93994.34
2022-08-30T11:20:50.591Z,93998.41
2022-08-30T11:21:48.870Z,93994.09
2022-08-30T11:23:13.563Z,93989.28
2022-08-30T11:24:16.622Z,93990.13
2022-08-30T11:25:38.781Z,93980.63
2022-08-30T11:26:50.983Z,93983.75
2022-08-30T11:27:58.996Z,93986.63
2022-08-30T11:28:58.351Z,93989.00
2022-08-30T11:29:55.061Z,93984.19
2022-08-30T11:30:52.483Z,93985.97
2022-08-30T11:31:49.177Z,93994.91
2022-08-30T11:33:09.366Z,93996.44
2022-08-30T11:34:07.668Z,93995.72
2022-08-30T11:35:05.902Z,93998.97
2022-08-30T11:36:09.669Z,93975.03
2022-08-30T11:37:09.666Z,93992.34
2022-08-30T11:38:40.066Z,93992.06
2022-08-30T11:39:49.090Z,93993.38
2022-08-30T11:40:49.372Z,93989.38
2022-08-30T11:42:06.954Z,93983.69
2022-08-30T11:43:37.638Z,93991.84
2022-08-30T11:44:34.660Z,93986.13
2022-08-30T11:45:36.230Z,93987.25
2022-08-30T11:46:39.036Z,93985.72
2022-08-30T11:47:47.331Z,93981.28
2022-08-30T11:48:54.254Z,93982.47
2022-08-30T11:50:09.802Z,93985.06
2022-08-30T11:51:24.072Z,93975.28
2022-08-30T11:53:08.239Z,93977.31
2022-08-30T11:54:23.040Z,93974.06